Aérodrome :
LOGIN :

S'inscrire | Disclaimer

   EN    FR    IT 

 










Légende :    VFR   VFR Marginal   IFR   IFR Intensif   IFR Très Intensif
Visi : 
Plafond : 
>= 8 km
>= 3000ft
5 à 8 km
1000 à 3000 ft
1500m à 5 km
500 à 1000 ft
800 à 1500m
200 à 500 ft
< 800m
< 200 ft
Symboles :   Orages  Brouillard  Fortes neiges  Fortes précipitations  Vent > 20 kt
SIGMETs :   Divers  Orages  Givrage  Turbulence  Onde Orograph.  Cendres Volcan.







- Altitude de l'aérodrome : 42 ft
- Code IATA : CAL
- Voir les cartes d'approche


EGEC - Campbeltown

DERNIER METAR :
  • 121450Z 20010KT 9999 RA SCT018 BKN040 04/03 Q0998

METARs EXPIRÉS :
  • 121420Z 19010KT 9999 RA FEW025 BKN040 05/03 Q0998
  • 121350Z 19010KT 9999 -RA FEW025 BKN040 05/03 Q0999
  • 121250Z 19010KT 9999 FEW025 06/03 Q1000

TAF TAF EGEC
Valide du 12 à 15h jusqu'au 12 à 18h UTC


121418Z 1215/1218 21009KT 9999 FEW020
TEMPO 1215/1218 23020G30KT 6000 -RA BKN012
PROB40
TEMPO 1215/1217 3000 RADZ BKN006
Pas de NOTAMs connus pour ce terrain.



MET'MAP, la Météo Aéronautique d'un coup d'oeil ! - Copyright ORBIFLY Décembre 2007 - Disclaimer

ORBIFLY MET'MAP TEAM :

Programmation & Développement : Alexandra Zaïnal
Conception & Développement : Baudouin d'Aumeries
Co-Programmation & Développement : Marc-Olivier Méhu
Soutien technique & logistique : Manuel Goepfert

Contact : metmap@orbifly.com




SOURCES & CREDITS :

   NOAA